YPI weather

CLOSED Port Simpson Seaplane Base
Lax Kw'alaams, British Columbia, Canada

Public forecast

Using degrees Celsius for public forecast. Weather courtesy of forecast.io.

Closest aviation weather report (METAR) to Port Simpson Seaplane Base

Closest report is Prince Rupert Airport, 16.9 nm (31.2 km) S. Retrieved 2019/11/18 12:00 UTC (40 minutes ago):

CYPR 181200Z AUTO 11006KT 9SM SCT075 BKN140 OVC160 07/05 A3001 RMK SLP164

Closest aviation forecast (TAF) to Port Simpson Seaplane Base

Closest forecast is Prince Rupert Airport, 16.9 nm (31.2 km) S. Retrieved 2019/11/18 13:39 UTC (0 seconds ago):

TAF CYPR 181238Z 1813/1901 12005KT P6SM FEW020 SCT060 TEMPO 1813/1901 P6SM -SHRA BKN020 OVC040 RMK FCST BASED ON AUTO OBS NXT FCST BY 181900Z